createdAt,value
2016-09-03T00:00:09.089Z,0
2016-09-03T00:01:09.078Z,0
2016-09-03T00:02:08.363Z,0
2016-09-03T00:03:08.354Z,0
2016-09-03T00:04:09.057Z,0
2016-09-03T00:05:08.345Z,0
2016-09-03T00:06:09.039Z,0
2016-09-03T00:07:09.034Z,0
2016-09-03T00:08:08.309Z,0
2016-09-03T00:09:09.226Z,0
2016-09-03T00:10:08.298Z,0
2016-09-03T00:11:08.298Z,0
2016-09-03T00:12:08.284Z,0
2016-09-03T00:13:08.278Z,0
2016-09-03T00:14:08.267Z,0
2016-09-03T00:15:08.974Z,0
2016-09-03T00:16:08.250Z,0
2016-09-03T00:17:08.254Z,0
2016-09-03T00:18:08.944Z,0
2016-09-03T00:19:08.940Z,0
2016-09-03T00:20:08.933Z,0
2016-09-03T00:21:08.211Z,0
2016-09-03T00:22:08.202Z,0
2016-09-03T00:23:08.931Z,0
2016-09-03T00:24:08.203Z,0
2016-09-03T00:25:08.183Z,0
2016-09-03T00:26:08.886Z,0
2016-09-03T00:27:08.163Z,0
2016-09-03T00:28:08.156Z,0
2016-09-03T00:29:08.151Z,0
2016-09-03T00:30:08.139Z,0
2016-09-03T00:31:08.844Z,0
2016-09-03T00:32:08.123Z,0
2016-09-03T00:33:08.111Z,0
2016-09-03T00:34:08.112Z,0
2016-09-03T00:35:08.110Z,0
2016-09-03T00:36:08.811Z,0
2016-09-03T00:37:08.792Z,0
2016-09-03T00:38:08.080Z,0
2016-09-03T00:39:08.069Z,0
2016-09-03T00:40:08.060Z,0
2016-09-03T00:41:08.756Z,0
2016-09-03T00:42:08.045Z,0
2016-09-03T00:43:08.740Z,0
2016-09-03T00:44:08.029Z,0
2016-09-03T00:45:08.731Z,0
2016-09-03T00:46:08.729Z,0
2016-09-03T00:47:08.002Z,0
2016-09-03T00:48:07.999Z,0
2016-09-03T00:49:08.707Z,0
2016-09-03T00:50:07.979Z,0
2016-09-03T00:51:09.386Z,0
2016-09-03T00:52:07.958Z,0
2016-09-03T00:53:08.663Z,0
2016-09-03T00:54:07.946Z,0
2016-09-03T00:55:07.935Z,0
2016-09-03T00:56:08.639Z,0
2016-09-03T00:57:08.636Z,0
2016-09-03T00:58:07.904Z,0
2016-09-03T00:59:08.671Z,0
2016-09-03T01:00:09.314Z,0
2016-09-03T01:01:07.893Z,0
2016-09-03T01:02:07.889Z,0
2016-09-03T01:03:08.586Z,0
2016-09-03T01:04:07.862Z,0
2016-09-03T01:05:07.859Z,0
2016-09-03T01:06:08.555Z,0
2016-09-03T01:07:07.841Z,0
2016-09-03T01:08:07.830Z,0
2016-09-03T01:09:07.818Z,0
2016-09-03T01:10:07.822Z,0
2016-09-03T01:11:07.820Z,0
2016-09-03T01:12:07.794Z,0
2016-09-03T01:13:07.797Z,0
2016-09-03T01:14:07.783Z,0
2016-09-03T01:15:08.487Z,0
2016-09-03T01:16:08.485Z,0
2016-09-03T01:17:07.754Z,0
2016-09-03T01:18:07.754Z,0
2016-09-03T01:19:08.444Z,0
2016-09-03T01:20:08.433Z,0
2016-09-03T01:21:07.723Z,0
2016-09-03T01:22:07.724Z,0
2016-09-03T01:23:07.703Z,0
2016-09-03T01:24:07.697Z,0
2016-09-03T01:25:07.692Z,0
2016-09-03T01:26:07.690Z,0
2016-09-03T01:27:08.385Z,0
2016-09-03T01:28:07.666Z,0
2016-09-03T01:29:08.364Z,0
2016-09-03T01:30:07.655Z,0
2016-09-03T01:31:08.345Z,0
2016-09-03T01:32:07.650Z,0
2016-09-03T01:33:07.621Z,0
2016-09-03T01:34:07.607Z,0
2016-09-03T01:35:07.610Z,0
2016-09-03T01:36:08.316Z,0
2016-09-03T01:37:07.585Z,0
2016-09-03T01:38:07.593Z,0
2016-09-03T01:39:07.572Z,0
2016-09-03T01:40:07.564Z,0
2016-09-03T01:41:07.556Z,0
2016-09-03T01:42:07.548Z,0
2016-09-03T01:43:07.538Z,0
2016-09-03T01:44:07.531Z,0
2016-09-03T01:45:07.525Z,0
2016-09-03T01:46:07.516Z,0
2016-09-03T01:47:07.508Z,0
2016-09-03T01:48:08.200Z,0
2016-09-03T01:49:07.490Z,0
2016-09-03T01:50:07.482Z,0
2016-09-03T01:51:07.472Z,0
2016-09-03T01:52:07.462Z,0
2016-09-03T01:53:08.156Z,0
2016-09-03T01:54:07.448Z,0
2016-09-03T01:55:07.438Z,0
2016-09-03T01:56:07.428Z,0
2016-09-03T01:57:08.129Z,0
2016-09-03T01:58:08.125Z,0
2016-09-03T01:59:07.408Z,0
2016-09-03T02:00:08.106Z,0
2016-09-03T02:01:07.388Z,0
2016-09-03T02:02:07.382Z,0
2016-09-03T02:03:07.369Z,0
2016-09-03T02:04:07.359Z,0
2016-09-03T02:05:07.358Z,0
2016-09-03T02:06:08.056Z,0
2016-09-03T02:07:07.338Z,0
2016-09-03T02:08:07.347Z,0
2016-09-03T02:09:08.232Z,0
2016-09-03T02:10:08.722Z,0
2016-09-03T02:11:07.307Z,0
2016-09-03T02:12:08.000Z,0
2016-09-03T02:13:07.279Z,0
2016-09-03T02:14:07.987Z,0
2016-09-03T02:15:08.684Z,0
2016-09-03T02:16:08.685Z,0
2016-09-03T02:17:07.258Z,0
2016-09-03T02:18:07.950Z,0
2016-09-03T02:19:07.233Z,0
2016-09-03T02:20:07.964Z,0
2016-09-03T02:21:07.220Z,0
2016-09-03T02:22:07.217Z,0
2016-09-03T02:23:07.203Z,0
2016-09-03T02:24:07.188Z,0
2016-09-03T02:25:07.188Z,0
2016-09-03T02:26:07.173Z,0
2016-09-03T02:27:07.164Z,0
2016-09-03T02:28:07.161Z,0
2016-09-03T02:29:07.150Z,0
2016-09-03T02:30:07.138Z,0
2016-09-03T02:31:07.154Z,0
2016-09-03T02:32:07.122Z,0
2016-09-03T02:33:07.118Z,0
2016-09-03T02:34:07.823Z,0
2016-09-03T02:35:07.097Z,0
2016-09-03T02:36:07.090Z,0
2016-09-03T02:37:07.083Z,0
2016-09-03T02:38:07.066Z,0
2016-09-03T02:39:07.774Z,0
2016-09-03T02:40:07.057Z,0
2016-09-03T02:41:07.045Z,0
2016-09-03T02:42:07.042Z,0
2016-09-03T02:43:07.033Z,0
2016-09-03T02:44:07.727Z,0
2016-09-03T02:45:07.736Z,0
2016-09-03T02:46:07.031Z,0
2016-09-03T02:47:07.741Z,0
2016-09-03T02:48:07.010Z,0
2016-09-03T02:49:07.689Z,0
2016-09-03T02:50:06.974Z,0
2016-09-03T02:51:08.383Z,0
2016-09-03T02:52:07.660Z,0
2016-09-03T02:53:06.953Z,0
2016-09-03T02:54:07.657Z,0
2016-09-03T02:55:07.652Z,0
2016-09-03T02:56:06.921Z,0
2016-09-03T02:57:07.623Z,0
2016-09-03T02:58:06.931Z,0
2016-09-03T02:59:07.616Z,0
2016-09-03T03:00:06.886Z,0
2016-09-03T03:01:06.881Z,0
2016-09-03T03:02:06.873Z,0
2016-09-03T03:03:06.863Z,0
2016-09-03T03:04:06.864Z,0
2016-09-03T03:05:07.555Z,0
2016-09-03T03:06:06.835Z,0
2016-09-03T03:07:06.828Z,0
2016-09-03T03:08:07.522Z,0
2016-09-03T03:09:07.516Z,0
2016-09-03T03:10:06.813Z,0
2016-09-03T03:11:07.502Z,0
2016-09-03T03:12:06.786Z,0
2016-09-03T03:13:07.484Z,0
2016-09-03T03:14:06.778Z,0
2016-09-03T03:15:07.467Z,0
2016-09-03T03:16:06.752Z,0
2016-09-03T03:17:06.748Z,0
2016-09-03T03:18:06.734Z,0
2016-09-03T03:19:07.434Z,0
2016-09-03T03:20:07.427Z,0
2016-09-03T03:21:06.708Z,0
2016-09-03T03:22:06.701Z,0
2016-09-03T03:23:08.116Z,0
2016-09-03T03:24:06.681Z,0
2016-09-03T03:25:06.676Z,0
2016-09-03T03:26:07.372Z,0
2016-09-03T03:27:06.653Z,0
2016-09-03T03:28:06.686Z,0
2016-09-03T03:29:07.349Z,0
2016-09-03T03:30:06.637Z,0
2016-09-03T03:31:06.633Z,0
2016-09-03T03:32:06.613Z,0
2016-09-03T03:33:06.608Z,0
2016-09-03T03:34:08.018Z,0
2016-09-03T03:35:07.291Z,0
2016-09-03T03:36:06.585Z,0
2016-09-03T03:37:06.570Z,0
2016-09-03T03:38:06.557Z,0
2016-09-03T03:39:06.553Z,0
2016-09-03T03:40:06.545Z,0
2016-09-03T03:41:06.533Z,0
2016-09-03T03:42:06.524Z,0
2016-09-03T03:43:07.936Z,0
2016-09-03T03:44:07.226Z,0
2016-09-03T03:45:06.501Z,0
2016-09-03T03:46:06.487Z,0
2016-09-03T03:47:06.488Z,0
2016-09-03T03:48:06.475Z,0
2016-09-03T03:49:06.461Z,0
2016-09-03T03:50:07.167Z,0
2016-09-03T03:51:06.448Z,0
2016-09-03T03:52:06.440Z,0
2016-09-03T03:53:06.439Z,0
2016-09-03T03:54:06.434Z,0
2016-09-03T03:55:07.135Z,0
2016-09-03T03:56:06.400Z,0
2016-09-03T03:57:06.390Z,0
2016-09-03T03:58:06.396Z,0
2016-09-03T03:59:06.460Z,0
2016-09-03T04:00:06.364Z,0
2016-09-03T04:01:07.070Z,0
2016-09-03T04:02:08.473Z,0
2016-09-03T04:03:06.337Z,0
2016-09-03T04:04:06.333Z,0
2016-09-03T04:05:07.042Z,0
2016-09-03T04:06:07.055Z,0
2016-09-03T04:07:06.305Z,0
2016-09-03T04:08:07.012Z,0
2016-09-03T04:09:06.492Z,0
2016-09-03T04:10:06.988Z,0
2016-09-03T04:11:06.970Z,0
2016-09-03T04:12:06.251Z,0
2016-09-03T04:13:06.247Z,0
2016-09-03T04:14:06.951Z,0
2016-09-03T04:15:06.946Z,0
2016-09-03T04:16:06.227Z,0
2016-09-03T04:17:06.209Z,0
2016-09-03T04:18:06.207Z,0
2016-09-03T04:19:06.905Z,4
2016-09-03T04:20:06.185Z,4
2016-09-03T04:21:06.180Z,4
2016-09-03T04:22:06.170Z,4
2016-09-03T04:23:06.869Z,4
2016-09-03T04:24:06.151Z,8
2016-09-03T04:25:06.140Z,4
2016-09-03T04:26:06.838Z,8
2016-09-03T04:27:06.125Z,8
2016-09-03T04:28:06.817Z,8
2016-09-03T04:29:06.094Z,12
2016-09-03T04:30:06.089Z,16
2016-09-03T04:31:06.084Z,16
2016-09-03T04:32:06.083Z,20
2016-09-03T04:33:06.069Z,20
2016-09-03T04:34:06.055Z,24
2016-09-03T04:35:06.048Z,28
2016-09-03T04:36:06.036Z,28
2016-09-03T04:37:06.023Z,32
2016-09-03T04:38:06.726Z,40
2016-09-03T04:39:06.729Z,48
2016-09-03T04:40:07.459Z,52
2016-09-03T04:41:05.995Z,56
2016-09-03T04:42:06.694Z,60
2016-09-03T04:43:05.972Z,72
2016-09-03T04:44:05.962Z,76
2016-09-03T04:45:05.952Z,84
2016-09-03T04:46:05.944Z,88
2016-09-03T04:47:05.936Z,100
2016-09-03T04:48:06.633Z,112
2016-09-03T04:49:05.915Z,124
2016-09-03T04:50:05.907Z,132
2016-09-03T04:51:05.893Z,144
2016-09-03T04:52:05.892Z,156
2016-09-03T04:53:06.589Z,172
2016-09-03T04:54:05.866Z,188
2016-09-03T04:55:05.862Z,204
2016-09-03T04:56:05.843Z,220
2016-09-03T04:57:05.843Z,236
2016-09-03T04:58:05.833Z,252
2016-09-03T04:59:06.530Z,268
2016-09-03T05:00:05.825Z,280
2016-09-03T05:01:06.510Z,292
2016-09-03T05:02:05.792Z,304
2016-09-03T05:03:05.787Z,316
2016-09-03T05:04:05.777Z,328
2016-09-03T05:05:05.762Z,340
2016-09-03T05:06:05.756Z,360
2016-09-03T05:07:06.456Z,380
2016-09-03T05:08:05.742Z,396
2016-09-03T05:09:05.731Z,416
2016-09-03T05:10:05.720Z,444
2016-09-03T05:11:05.712Z,476
2016-09-03T05:12:06.410Z,516
2016-09-03T05:13:05.695Z,548
2016-09-03T05:14:06.398Z,588
2016-09-03T05:15:05.682Z,612
2016-09-03T05:16:05.660Z,632
2016-09-03T05:17:06.361Z,660
2016-09-03T05:18:05.643Z,684
2016-09-03T05:19:05.635Z,708
2016-09-03T05:20:05.628Z,728
2016-09-03T05:21:05.631Z,756
2016-09-03T05:22:06.319Z,780
2016-09-03T05:23:06.323Z,812
2016-09-03T05:24:06.298Z,852
2016-09-03T05:25:05.592Z,884
2016-09-03T05:26:05.570Z,920
2016-09-03T05:27:05.563Z,956
2016-09-03T05:28:06.260Z,996
2016-09-03T05:29:06.256Z,1024
2016-09-03T05:30:05.541Z,1056
2016-09-03T05:31:05.517Z,1084
2016-09-03T05:32:05.511Z,1116
2016-09-03T05:33:05.506Z,1140
2016-09-03T05:34:05.495Z,1160
2016-09-03T05:35:05.493Z,1180
2016-09-03T05:36:05.474Z,1192
2016-09-03T05:37:05.468Z,1204
2016-09-03T05:38:05.461Z,1212
2016-09-03T05:39:05.451Z,1212
2016-09-03T05:40:06.203Z,1216
2016-09-03T05:41:05.430Z,1224
2016-09-03T05:42:05.417Z,1236
2016-09-03T05:43:05.414Z,1260
2016-09-03T05:44:05.406Z,1280
2016-09-03T05:45:05.389Z,1312
2016-09-03T05:46:06.095Z,1332
2016-09-03T05:47:05.378Z,1316
2016-09-03T05:48:05.359Z,1308
2016-09-03T05:49:05.360Z,1304
2016-09-03T05:50:06.062Z,1320
2016-09-03T05:51:05.345Z,1372
2016-09-03T05:52:05.334Z,1472
2016-09-03T05:53:05.317Z,1576
2016-09-03T05:54:05.341Z,1616
2016-09-03T05:55:05.314Z,1640
2016-09-03T05:56:05.307Z,1644
2016-09-03T05:57:05.278Z,1620
2016-09-03T05:58:05.271Z,1708
2016-09-03T05:59:05.273Z,1792
2016-09-03T06:00:05.961Z,1808
2016-09-03T06:01:05.247Z,1864
2016-09-03T06:02:05.242Z,1992
2016-09-03T06:03:05.229Z,2160
2016-09-03T06:04:05.233Z,2324
2016-09-03T06:05:05.930Z,2512
2016-09-03T06:06:05.206Z,2700
2016-09-03T06:07:06.607Z,2840
2016-09-03T06:08:05.886Z,2984
2016-09-03T06:09:05.372Z,3128
2016-09-03T06:10:05.167Z,3132
2016-09-03T06:11:05.871Z,3032
2016-09-03T06:12:05.144Z,2840
2016-09-03T06:13:05.138Z,2872
2016-09-03T06:14:05.130Z,3000
2016-09-03T06:15:05.124Z,3168
2016-09-03T06:16:05.828Z,3244
2016-09-03T06:17:05.116Z,3324
2016-09-03T06:18:06.512Z,3384
2016-09-03T06:19:05.097Z,3328
2016-09-03T06:20:05.085Z,3188
2016-09-03T06:21:05.070Z,3080
2016-09-03T06:22:05.064Z,3072
2016-09-03T06:23:05.769Z,3092
2016-09-03T06:24:05.044Z,3136
2016-09-03T06:25:05.028Z,3212
2016-09-03T06:26:05.729Z,3248
2016-09-03T06:27:06.439Z,3096
2016-09-03T06:28:05.012Z,3144
2016-09-03T06:29:05.000Z,3232
2016-09-03T06:30:05.702Z,3352
2016-09-03T06:31:05.704Z,3228
2016-09-03T06:32:04.974Z,3212
2016-09-03T06:33:04.972Z,3308
2016-09-03T06:34:05.663Z,3444
2016-09-03T06:35:04.962Z,3344
2016-09-03T06:36:04.939Z,3400
2016-09-03T06:37:05.647Z,3592
2016-09-03T06:38:06.355Z,3748
2016-09-03T06:39:04.914Z,3936
2016-09-03T06:40:05.614Z,3852
2016-09-03T06:41:04.903Z,3964
2016-09-03T06:42:05.596Z,4100
2016-09-03T06:43:04.882Z,4220
2016-09-03T06:44:04.874Z,4308
2016-09-03T06:45:04.867Z,4324
2016-09-03T06:46:05.576Z,4336
2016-09-03T06:47:04.853Z,4348
2016-09-03T06:48:04.842Z,4348
2016-09-03T06:49:04.833Z,4364
2016-09-03T06:50:04.825Z,4380
2016-09-03T06:51:04.815Z,4372
2016-09-03T06:52:05.512Z,4388
2016-09-03T06:53:04.798Z,4416
2016-09-03T06:54:04.786Z,4408
2016-09-03T06:55:05.495Z,4384
2016-09-03T06:56:04.774Z,4396
2016-09-03T06:57:04.766Z,4448
2016-09-03T06:58:04.755Z,4488
2016-09-03T06:59:04.744Z,4516
2016-09-03T07:00:04.748Z,4524
2016-09-03T07:01:04.731Z,4600
2016-09-03T07:02:04.728Z,4700
2016-09-03T07:03:06.130Z,4812
2016-09-03T07:04:04.713Z,4888
2016-09-03T07:05:04.712Z,4924
2016-09-03T07:06:05.404Z,5000
2016-09-03T07:07:04.683Z,5084
2016-09-03T07:08:05.384Z,5160
2016-09-03T07:09:05.387Z,5228
2016-09-03T07:10:04.667Z,5264
2016-09-03T07:11:04.667Z,5320
2016-09-03T07:12:04.638Z,5360
2016-09-03T07:13:05.341Z,5416
2016-09-03T07:14:04.629Z,5508
2016-09-03T07:15:05.328Z,5616
2016-09-03T07:16:06.030Z,5712
2016-09-03T07:17:05.316Z,5864
2016-09-03T07:18:04.606Z,6012
2016-09-03T07:19:05.300Z,6180
2016-09-03T07:20:05.998Z,6344
2016-09-03T07:21:05.275Z,6480
2016-09-03T07:22:04.564Z,6600
2016-09-03T07:23:04.565Z,6696
2016-09-03T07:24:04.549Z,6780
2016-09-03T07:25:05.245Z,6828
2016-09-03T07:26:04.542Z,6844
2016-09-03T07:27:04.525Z,6844
2016-09-03T07:28:04.518Z,6824
2016-09-03T07:29:05.216Z,6840
2016-09-03T07:30:04.505Z,6804
2016-09-03T07:31:04.507Z,6784
2016-09-03T07:32:04.500Z,6728
2016-09-03T07:33:04.479Z,6696
2016-09-03T07:34:05.174Z,6664
2016-09-03T07:35:04.465Z,6644
2016-09-03T07:36:04.448Z,6660
2016-09-03T07:37:04.444Z,6704
2016-09-03T07:38:04.444Z,6792
2016-09-03T07:39:04.431Z,6836
2016-09-03T07:40:05.134Z,6880
2016-09-03T07:41:05.123Z,6924
2016-09-03T07:42:05.117Z,7000
2016-09-03T07:43:04.399Z,7032
2016-09-03T07:44:04.390Z,7088
2016-09-03T07:45:05.090Z,7160
2016-09-03T07:46:04.394Z,7232
2016-09-03T07:47:04.369Z,7320
2016-09-03T07:48:04.361Z,7340
2016-09-03T07:49:05.067Z,7336
2016-09-03T07:50:04.353Z,7352
2016-09-03T07:51:04.340Z,7384
2016-09-03T07:52:04.330Z,7368
2016-09-03T07:53:04.328Z,7416
2016-09-03T07:54:04.312Z,7480
2016-09-03T07:55:04.319Z,7536
2016-09-03T07:56:05.005Z,7624
2016-09-03T07:57:04.297Z,7700
2016-09-03T07:58:04.289Z,7804
2016-09-03T07:59:04.985Z,7892
2016-09-03T08:00:04.285Z,7980
2016-09-03T08:01:04.277Z,7904
2016-09-03T08:02:04.257Z,7812
2016-09-03T08:03:04.954Z,7772
2016-09-03T08:04:04.943Z,7752
2016-09-03T08:05:04.235Z,7732
2016-09-03T08:06:04.489Z,7732
2016-09-03T08:07:04.928Z,7764
2016-09-03T08:08:04.210Z,7824
2016-09-03T08:09:05.107Z,7924
2016-09-03T08:10:04.921Z,8012
2016-09-03T08:11:04.188Z,8092
2016-09-03T08:12:04.178Z,8152
2016-09-03T08:13:04.173Z,8124
2016-09-03T08:14:05.578Z,8956
2016-09-03T08:15:04.862Z,8972
2016-09-03T08:16:04.154Z,8584
2016-09-03T08:17:04.852Z,8744
2016-09-03T08:18:04.855Z,9904
2016-09-03T08:19:04.143Z,9640
2016-09-03T08:20:05.539Z,7348
2016-09-03T08:21:04.118Z,7324
2016-09-03T08:22:04.112Z,7200
2016-09-03T08:23:04.115Z,7104
2016-09-03T08:24:04.100Z,6824
2016-09-03T08:25:04.090Z,6728
2016-09-03T08:26:04.083Z,7156
2016-09-03T08:27:04.073Z,7636
2016-09-03T08:28:04.065Z,8120
2016-09-03T08:29:04.777Z,7992
2016-09-03T08:30:04.059Z,8872
2016-09-03T08:31:04.046Z,10208
2016-09-03T08:32:04.042Z,10596
2016-09-03T08:33:04.734Z,10584
2016-09-03T08:34:04.741Z,9908
2016-09-03T08:35:04.015Z,10068
2016-09-03T08:36:04.020Z,9780
2016-09-03T08:37:05.420Z,8964
2016-09-03T08:38:03.997Z,10008
2016-09-03T08:39:03.987Z,11280
2016-09-03T08:40:03.982Z,12624
2016-09-03T08:41:04.784Z,12692
2016-09-03T08:42:05.401Z,10632
2016-09-03T08:43:04.685Z,8228
2016-09-03T08:44:04.662Z,7296
2016-09-03T08:45:04.661Z,7476
2016-09-03T08:46:04.647Z,7832
2016-09-03T08:47:04.641Z,7400
2016-09-03T08:48:03.946Z,7616
2016-09-03T08:49:03.936Z,8080
2016-09-03T08:50:06.054Z,8652
2016-09-03T08:51:05.336Z,8956
2016-09-03T08:52:04.609Z,9148
2016-09-03T08:53:04.614Z,9240
2016-09-03T08:54:03.888Z,8664
2016-09-03T08:55:04.591Z,8024
2016-09-03T08:56:03.876Z,8088
2016-09-03T08:57:04.579Z,8348
2016-09-03T08:58:04.564Z,9024
2016-09-03T08:59:03.854Z,9540
2016-09-03T09:00:03.852Z,10344
2016-09-03T09:01:03.843Z,11272
2016-09-03T09:02:03.843Z,14036
2016-09-03T09:03:05.268Z,14464
2016-09-03T09:04:04.526Z,14848
2016-09-03T09:05:03.835Z,15304
2016-09-03T09:06:03.816Z,15340
2016-09-03T09:07:04.510Z,14740
2016-09-03T09:08:04.506Z,13532
2016-09-03T09:09:04.504Z,11360
2016-09-03T09:10:03.781Z,10056
2016-09-03T09:11:05.195Z,9348
2016-09-03T09:12:04.477Z,10724
2016-09-03T09:13:04.478Z,13344
2016-09-03T09:14:04.470Z,13660
2016-09-03T09:15:03.747Z,11892
2016-09-03T09:16:04.457Z,11980
2016-09-03T09:17:03.743Z,12172
2016-09-03T09:18:03.739Z,13508
2016-09-03T09:19:03.727Z,15136
2016-09-03T09:20:05.145Z,14120
2016-09-03T09:21:03.720Z,13264
2016-09-03T09:22:03.711Z,13036
2016-09-03T09:23:03.700Z,12196
2016-09-03T09:24:04.420Z,11952
2016-09-03T09:25:03.703Z,12268
2016-09-03T09:26:03.686Z,11584
2016-09-03T09:27:03.681Z,11584
2016-09-03T09:28:03.672Z,12144
2016-09-03T09:29:04.374Z,16864
2016-09-03T09:30:03.666Z,17760
2016-09-03T09:31:03.652Z,17696
2016-09-03T09:32:04.362Z,17472
2016-09-03T09:33:04.350Z,16204
2016-09-03T09:34:03.635Z,15960
2016-09-03T09:35:03.634Z,15004
2016-09-03T09:36:05.043Z,15268
2016-09-03T09:37:05.039Z,14100
2016-09-03T09:38:03.623Z,15064
2016-09-03T09:39:03.604Z,16300
2016-09-03T09:40:03.611Z,15956
2016-09-03T09:41:03.646Z,17152
2016-09-03T09:42:04.303Z,17088
2016-09-03T09:43:03.590Z,17024
2016-09-03T09:44:03.587Z,18400
2016-09-03T09:45:03.579Z,17760
2016-09-03T09:46:03.573Z,15080
2016-09-03T09:47:04.278Z,13988
2016-09-03T09:48:03.567Z,13572
2016-09-03T09:49:03.557Z,11796
2016-09-03T09:50:03.545Z,11108
2016-09-03T09:51:03.551Z,12648
2016-09-03T09:52:03.540Z,13264
2016-09-03T09:53:04.955Z,13580
2016-09-03T09:54:03.535Z,13468
2016-09-03T09:55:04.235Z,13804
2016-09-03T09:56:04.223Z,14436
2016-09-03T09:57:03.519Z,14968
2016-09-03T09:58:04.218Z,15560
2016-09-03T09:59:03.517Z,16128
2016-09-03T10:00:03.512Z,15920
2016-09-03T10:01:04.207Z,15064
2016-09-03T10:02:03.490Z,14292
2016-09-03T10:03:03.486Z,13620
2016-09-03T10:04:03.482Z,12616
2016-09-03T10:05:03.475Z,11052
2016-09-03T10:06:03.469Z,10916
2016-09-03T10:07:04.160Z,10992
2016-09-03T10:08:04.163Z,11452
2016-09-03T10:09:03.900Z,12120
2016-09-03T10:10:04.161Z,12820
2016-09-03T10:11:03.434Z,13240
2016-09-03T10:12:03.430Z,14536
2016-09-03T10:13:03.422Z,17696
2016-09-03T10:14:03.418Z,24032
2016-09-03T10:15:04.129Z,24544
2016-09-03T10:16:03.406Z,21472
2016-09-03T10:17:04.117Z,17216
2016-09-03T10:18:04.102Z,15560
2016-09-03T10:19:03.394Z,15424
2016-09-03T10:20:04.802Z,15060
2016-09-03T10:21:03.384Z,13876
2016-09-03T10:22:03.375Z,14188
2016-09-03T10:23:03.385Z,14668
2016-09-03T10:24:04.779Z,15380
2016-09-03T10:25:03.359Z,17472
2016-09-03T10:26:03.358Z,17856
2016-09-03T10:27:04.056Z,14820
2016-09-03T10:28:03.349Z,14072
2016-09-03T10:29:03.342Z,12616
2016-09-03T10:30:03.349Z,10796
2016-09-03T10:31:03.333Z,8876
2016-09-03T10:32:03.321Z,8296
2016-09-03T10:33:03.319Z,8296
2016-09-03T10:34:03.312Z,8220
2016-09-03T10:35:03.307Z,8656
2016-09-03T10:36:04.009Z,9428
2016-09-03T10:37:03.299Z,9332
2016-09-03T10:38:03.302Z,9052
2016-09-03T10:39:03.287Z,10772
2016-09-03T10:40:04.703Z,13584
2016-09-03T10:41:03.275Z,14468
2016-09-03T10:42:03.270Z,13128
2016-09-03T10:43:03.265Z,13724
2016-09-03T10:44:03.260Z,14972
2016-09-03T10:45:03.258Z,13940
2016-09-03T10:46:03.950Z,12864
2016-09-03T10:47:03.254Z,12620
2016-09-03T10:48:03.238Z,12392
2016-09-03T10:49:03.253Z,13820
2016-09-03T10:50:03.236Z,14668
2016-09-03T10:51:03.223Z,15072
2016-09-03T10:52:03.216Z,15144
2016-09-03T10:53:03.914Z,14428
2016-09-03T10:54:03.214Z,16864
2016-09-03T10:55:03.914Z,17568
2016-09-03T10:56:03.914Z,15208
2016-09-03T10:57:03.197Z,13384
2016-09-03T10:58:03.186Z,11988
2016-09-03T10:59:03.188Z,11792
2016-09-03T11:00:03.889Z,11504
2016-09-03T11:01:03.178Z,12080
2016-09-03T11:02:03.164Z,12012
2016-09-03T11:03:03.158Z,11332
2016-09-03T11:04:04.567Z,10432
2016-09-03T11:05:03.143Z,10464
2016-09-03T11:06:03.140Z,11124
2016-09-03T11:07:03.136Z,12544
2016-09-03T11:08:03.130Z,15260
2016-09-03T11:09:04.540Z,16800
2016-09-03T11:10:03.117Z,16800
2016-09-03T11:11:03.830Z,18528
2016-09-03T11:12:03.107Z,21440
2016-09-03T11:13:03.804Z,20384
2016-09-03T11:14:04.524Z,20352
2016-09-03T11:15:03.802Z,24320
2016-09-03T11:16:03.090Z,23904
2016-09-03T11:17:03.094Z,27424
2016-09-03T11:18:03.095Z,40736
2016-09-03T11:19:03.077Z,27968
2016-09-03T11:20:03.068Z,51392
2016-09-03T11:21:04.473Z,17120
2016-09-03T11:22:03.056Z,28992
2016-09-03T11:23:03.050Z,15932
2016-09-03T11:24:03.049Z,13880
2016-09-03T11:25:03.754Z,14796
2016-09-03T11:26:03.038Z,18880
2016-09-03T11:27:03.040Z,16148
2016-09-03T11:28:03.031Z,12788
2016-09-03T11:29:03.019Z,55264
2016-09-03T11:30:03.733Z,12636
2016-09-03T11:31:03.719Z,14588
2016-09-03T11:32:03.003Z,15124
2016-09-03T11:33:03.733Z,12184
2016-09-03T11:34:03.704Z,10736
2016-09-03T11:35:03.032Z,11900
2016-09-03T11:36:02.990Z,14660
2016-09-03T11:37:03.689Z,16544
2016-09-03T11:38:02.986Z,16076
2016-09-03T11:39:03.684Z,33056
2016-09-03T11:40:02.974Z,23648
2016-09-03T11:41:02.971Z,19136
2016-09-03T11:42:03.666Z,20800
2016-09-03T11:43:02.966Z,27488
2016-09-03T11:44:02.964Z,39904
2016-09-03T11:45:02.945Z,23968
2016-09-03T11:46:04.374Z,25216
2016-09-03T11:47:02.946Z,59520
2016-09-03T11:48:02.942Z,58944
2016-09-03T11:49:02.937Z,25760
2016-09-03T11:50:03.651Z,20736
2016-09-03T11:51:03.662Z,23872
2016-09-03T11:52:02.922Z,41952
2016-09-03T11:53:02.914Z,14284
2016-09-03T11:54:03.697Z,18240
2016-09-03T11:55:03.630Z,23968
2016-09-03T11:56:02.918Z,22912
2016-09-03T11:57:02.922Z,14592
2016-09-03T11:58:03.607Z,11640
2016-09-03T11:59:02.900Z,10024
2016-09-03T12:00:03.605Z,9424
2016-09-03T12:01:02.891Z,9880
2016-09-03T12:02:03.595Z,10728
2016-09-03T12:03:02.876Z,11936
2016-09-03T12:04:02.877Z,35520
2016-09-03T12:05:03.577Z,86432
2016-09-03T12:06:02.872Z,86624
2016-09-03T12:07:02.877Z,93888
2016-09-03T12:08:02.860Z,99520
2016-09-03T12:09:02.865Z,36800
2016-09-03T12:10:03.062Z,51936
2016-09-03T12:11:03.559Z,21632
2016-09-03T12:12:02.852Z,42240
2016-09-03T12:13:02.849Z,55360
2016-09-03T12:14:02.846Z,43936
2016-09-03T12:15:02.841Z,22048
2016-09-03T12:16:03.549Z,22912
2016-09-03T12:17:03.550Z,65824
2016-09-03T12:18:02.833Z,78432
2016-09-03T12:19:02.855Z,84384
2016-09-03T12:20:02.835Z,81792
2016-09-03T12:21:02.822Z,31776
2016-09-03T12:22:03.537Z,15140
2016-09-03T12:23:02.829Z,14876
2016-09-03T12:24:02.830Z,16480
2016-09-03T12:25:02.831Z,11816
2016-09-03T12:26:02.816Z,11392
2016-09-03T12:27:02.825Z,13164
2016-09-03T12:28:02.816Z,14532
2016-09-03T12:29:02.812Z,14208
2016-09-03T12:30:02.817Z,13428
2016-09-03T12:31:02.809Z,12236
2016-09-03T12:32:02.809Z,20096
2016-09-03T12:33:02.807Z,30304
2016-09-03T12:34:03.507Z,67776
2016-09-03T12:35:04.250Z,69920
2016-09-03T12:36:03.530Z,85888
2016-09-03T12:37:02.809Z,98464
2016-09-03T12:38:02.797Z,50112
2016-09-03T12:39:04.219Z,93408
2016-09-03T12:40:02.789Z,95392
2016-09-03T12:41:04.279Z,15900
2016-09-03T12:42:02.785Z,31904
2016-09-03T12:43:02.784Z,77152
2016-09-03T12:44:02.780Z,79136
2016-09-03T12:45:02.787Z,79168
2016-09-03T12:46:03.491Z,72064
2016-09-03T12:47:02.774Z,17024
2016-09-03T12:48:02.781Z,81088
2016-09-03T12:49:03.527Z,29280
2016-09-03T12:50:02.774Z,78400
2016-09-03T12:51:02.783Z,42848
2016-09-03T12:52:02.779Z,22048
2016-09-03T12:53:02.779Z,14584
2016-09-03T12:54:02.779Z,11916
2016-09-03T12:55:02.785Z,14548
2016-09-03T12:56:03.487Z,57920
2016-09-03T12:57:02.784Z,26528
2016-09-03T12:58:03.478Z,67904
2016-09-03T12:59:02.776Z,48064
2016-09-03T13:00:03.489Z,36800
2016-09-03T13:01:02.776Z,80160
2016-09-03T13:02:02.772Z,88672
2016-09-03T13:03:02.772Z,87008
2016-09-03T13:04:02.775Z,83104
2016-09-03T13:05:02.767Z,85472
2016-09-03T13:06:02.766Z,59520
2016-09-03T13:07:03.475Z,22720
2016-09-03T13:08:02.782Z,24896
2016-09-03T13:09:03.475Z,39392
2016-09-03T13:10:02.780Z,20192
2016-09-03T13:11:03.484Z,18496
2016-09-03T13:12:02.776Z,20544
2016-09-03T13:13:03.489Z,46656
2016-09-03T13:14:02.773Z,96064
2016-09-03T13:15:03.479Z,92480
2016-09-03T13:16:02.763Z,83808
2016-09-03T13:17:02.759Z,72448
2016-09-03T13:18:03.480Z,60960
2016-09-03T13:19:02.761Z,55360
2016-09-03T13:20:03.471Z,58368
2016-09-03T13:21:02.759Z,64288
2016-09-03T13:22:03.472Z,74048
2016-09-03T13:23:02.760Z,78784
2016-09-03T13:24:02.760Z,78784
2016-09-03T13:25:03.474Z,78176
2016-09-03T13:26:02.764Z,76640
2016-09-03T13:27:02.764Z,73376
2016-09-03T13:28:02.765Z,75456
2016-09-03T13:29:03.484Z,76832
2016-09-03T13:30:02.786Z,13904
2016-09-03T13:31:03.476Z,10888
2016-09-03T13:32:02.771Z,12588
2016-09-03T13:33:02.774Z,71424
2016-09-03T13:34:02.771Z,78816
2016-09-03T13:35:02.776Z,25664
2016-09-03T13:36:04.194Z,47328
2016-09-03T13:37:02.778Z,10768
2016-09-03T13:38:03.487Z,11680